Time;durP1;ratioP1;P1;durP2;ratioP2;P2;SDS_P1;SDS_P2;PMS_P1;PMS_P2;Temp;Humidity;BMP_temperature;BMP_pressure;BME280_temperature;BME280_humidity;BME280_pressure;Samples;Min_cycle;Max_cycle;Signal;HPM_P1;HPM_P2
2022/08/04 00:04:35;;;;;;;;;;;;;;;21.65;53.40137;101380;;;;-74
2022/08/04 00:09:06;;;;;;;8.7;4.4;;;;;;;;;;;;;-74
2022/08/04 00:09:41;;;;;;;;;;;;;;;21.6;53.89844;101375.1;;;;-75
2022/08/04 00:14:38;;;;;;;;;;;;;;;21.56;53.65332;101377.8;;;;-75
2022/08/04 00:19:35;;;;;;;;;;;;;;;21.54;53.83301;101377.8;;;;-75
2022/08/04 00:24:36;;;;;;;;;;;;;;;21.51;53.83008;101374.6;;;;-75
2022/08/04 00:29:35;;;;;;;;;;;;;;;21.48;54.25977;101374;;;;-74
2022/08/04 00:34:35;;;;;;;;;;;;;;;21.45;53.89063;101365;;;;-73
2022/08/04 00:39:07;;;;;;;7.7;3.1;;;;;;;;;;;;;-73
2022/08/04 00:39:35;;;;;;;;;;;;;;;21.42;53.76172;101361.2;;;;-73
2022/08/04 00:44:40;;;;;;;;;;;;;;;21.37;54.06543;101361.1;;;;-74
2022/08/04 00:49:55;;;;;;;;;;;;;;;21.34;53.58203;101354.5;;;;-74
2022/08/04 00:54:40;;;;;;;;;;;;;;;21.29;53.78125;101361.9;;;;-73
2022/08/04 00:59:43;;;;;;;;;;;;;;;21.26;53.65137;101357;;;;-72
2022/08/04 01:04:43;;;;;;;;;;;;;;;21.22;53.58984;101356.1;;;;-74
2022/08/04 01:09:14;;;;;;;4.7;2.6;;;;;;;;;;;;;-73
2022/08/04 01:09:43;;;;;;;;;;;;;;;21.21;53.8623;101352.2;;;;-72
2022/08/04 01:14:45;;;;;;;;;;;;;;;21.18;53.40137;101349;;;;-73
2022/08/04 01:19:47;;;;;;;;;;;;;;;21.14;53.14648;101343.7;;;;-74
2022/08/04 01:24:51;;;;;;;;;;;;;;;21.1;53.01563;101334.8;;;;-74
2022/08/04 01:29:37;;;;;;;;;;;;;;;21.07;52.84082;101344.2;;;;-73
2022/08/04 01:34:38;;;;;;;;;;;;;;;21.05;52.82617;101339.1;;;;-75
2022/08/04 01:39:46;;;;;;;;;;;;;;;21.01;52.9707;101336.1;;;;-73
2022/08/04 01:44:36;;;;;;;;;;;;;;;20.95;52.83691;101342;;;;-74
2022/08/04 01:49:38;;;;;;;;;;;;;;;20.91;53.14258;101342.5;;;;-75
2022/08/04 01:54:35;;;;;;;;;;;;;;;20.87;53.05566;101339.1;;;;-74
2022/08/04 01:59:35;;;;;;;;;;;;;;;20.85;53.38477;101331;;;;-73
2022/08/04 02:04:34;;;;;;;;;;;;;;;20.82;53.15332;101328.3;;;;-73
2022/08/04 02:09:19;;;;;;;5.8;2.2;;;;;;;;;;;;;-74
2022/08/04 02:09:41;;;;;;;;;;;;;;;20.79;53.24121;101328.3;;;;-73
2022/08/04 02:14:44;;;;;;;;;;;;;;;20.77;52.81641;101328.5;;;;-74
2022/08/04 02:19:36;;;;;;;;;;;;;;;20.75;52.85938;101323.7;;;;-74
2022/08/04 02:24:35;;;;;;;;;;;;;;;20.71;52.67188;101313.7;;;;-74
2022/08/04 02:29:37;;;;;;;;;;;;;;;20.68;52.77051;101313.4;;;;-75
2022/08/04 02:34:35;;;;;;;;;;;;;;;20.66;52.8252;101309.1;;;;-74
2022/08/04 02:39:21;;;;;;;4.3;1.8;;;;;;;;;;;;;-73
2022/08/04 02:39:36;;;;;;;;;;;;;;;20.62;53.09473;101309.2;;;;-74
2022/08/04 02:44:35;;;;;;;;;;;;;;;20.58;52.9082;101305.8;;;;-73
2022/08/04 02:49:38;;;;;;;;;;;;;;;20.58;52.67969;101307.8;;;;-73
2022/08/04 02:54:37;;;;;;;;;;;;;;;20.56;52.75684;101306.5;;;;-74
2022/08/04 02:59:43;;;;;;;;;;;;;;;20.55;52.75684;101299.4;;;;-73
2022/08/04 03:04:44;;;;;;;;;;;;;;;20.53;52.67188;101298.7;;;;-74
2022/08/04 03:09:32;;;;;;;3.7;1.9;;;;;;;;;;;;;-74
2022/08/04 03:09:54;;;;;;;;;;;;;;;20.49;52.74902;101288.2;;;;-74
2022/08/04 03:14:52;;;;;;;;;;;;;;;20.47;52.80273;101291.9;;;;-74
2022/08/04 03:19:46;;;;;;;;;;;;;;;20.44;52.83496;101290.3;;;;-74
2022/08/04 03:25:01;;;;;;;;;;;;;;;20.41;52.85352;101289.2;;;;-74
2022/08/04 03:29:46;;;;;;;;;;;;;;;20.36;53.04102;101288.6;;;;-74
2022/08/04 03:34:49;;;;;;;;;;;;;;;20.34;53.2666;101289.5;;;;-73
2022/08/04 03:39:38;;;;;;;3.6;2;;;;;;;;;;;;;-75
2022/08/04 03:40:13;;;;;;;;;;;;;;;20.31;53.09277;101280.5;;;;-73
2022/08/04 03:44:45;;;;;;;;;;;;;;;20.31;53.41211;101282.3;;;;-72
2022/08/04 03:49:54;;;;;;;;;;;;;;;20.29;52.97754;101275.5;;;;-74
2022/08/04 03:54:46;;;;;;;;;;;;;;;20.27;52.97363;101275.6;;;;-75
2022/08/04 03:59:40;;;;;;;;;;;;;;;20.21;53.08008;101267.1;;;;-74
2022/08/04 04:04:58;;;;;;;;;;;;;;;20.19;52.94238;101272.8;;;;-73
2022/08/04 04:09:53;;;;;;;3.7;1.8;;;;;;;;;;;;;-73
2022/08/04 04:10:27;;;;;;;;;;;;;;;20.17;53.00684;101273.1;;;;-74
2022/08/04 04:14:50;;;;;;;;;;;;;;;20.14;53.0498;101270.6;;;;-73
2022/08/04 04:20:01;;;;;;;;;;;;;;;20.14;53.01563;101273;;;;-74
2022/08/04 04:24:43;;;;;;;;;;;;;;;20.13;53.23145;101270.1;;;;-75
2022/08/04 04:29:49;;;;;;;;;;;;;;;20.11;53.21777;101278.5;;;;-74
2022/08/04 04:34:41;;;;;;;;;;;;;;;20.1;53.31836;101276.4;;;;-75
2022/08/04 04:39:34;;;;;;;4.6;2;;;;;;;;;;;;;-74
2022/08/04 04:39:53;;;;;;;;;;;;;;;20.06;53.19922;101261.3;;;;-72
2022/08/04 04:44:49;;;;;;;;;;;;;;;20.09;53.20313;101271.2;;;;-74
2022/08/04 04:49:37;;;;;;;;;;;;;;;20.07;53.22363;101270.9;;;;-73
2022/08/04 04:54:36;;;;;;;;;;;;;;;20.1;53.18164;101278.7;;;;-74
2022/08/04 04:59:36;;;;;;;;;;;;;;;20.13;53.20703;101281.4;;;;-75
2022/08/04 05:04:46;;;;;;;;;;;;;;;20.15;53.4834;101280.7;;;;-74
2022/08/04 05:09:40;;;;;;;4.6;2;;;;;;;;;;;;;-75
2022/08/04 05:09:58;;;;;;;;;;;;;;;20.14;53.57324;101283.6;;;;-75
2022/08/04 05:14:36;;;;;;;;;;;;;;;20.22;53.17285;101293.8;;;;-74
2022/08/04 05:19:36;;;;;;;;;;;;;;;20.27;53.20215;101287.4;;;;-74
2022/08/04 05:24:37;;;;;;;;;;;;;;;20.34;53.0957;101290;;;;-74
2022/08/04 05:29:37;;;;;;;;;;;;;;;20.39;53.12598;101289.8;;;;-74
2022/08/04 05:34:38;;;;;;;;;;;;;;;20.46;53.00781;101290.9;;;;-74
2022/08/04 05:39:38;;;;;;;;;;;;;;;20.54;52.94824;101290.4;;;;-74
2022/08/04 05:39:50;;;;;;;3.6;1.7;;;;;;;;;;;;;-74
2022/08/04 05:44:35;;;;;;;;;;;;;;;20.63;52.74316;101293.2;;;;-74
2022/08/04 05:49:35;;;;;;;;;;;;;;;20.74;52.7334;101295.9;;;;-74
2022/08/04 05:54:39;;;;;;;;;;;;;;;20.85;52.7334;101291.7;;;;-73
2022/08/04 05:59:35;;;;;;;;;;;;;;;20.97;52.71484;101287.8;;;;-73
2022/08/04 06:04:36;;;;;;;;;;;;;;;21.09;52.47754;101296.1;;;;-74
2022/08/04 06:09:35;;;;;;;;;;;;;;;21.24;52.73438;101303.1;;;;-74
2022/08/04 06:09:44;;;;;;;4.4;1.7;;;;;;;;;;;;;-74
2022/08/04 06:14:36;;;;;;;;;;;;;;;21.37;52.69238;101301.2;;;;-75
2022/08/04 06:19:36;;;;;;;;;;;;;;;21.5;52.75293;101304.2;;;;-74
2022/08/04 06:24:40;;;;;;;;;;;;;;;21.65;53.25195;101306.6;;;;-74
2022/08/04 06:29:39;;;;;;;;;;;;;;;21.82;53.35254;101303.2;;;;-74
2022/08/04 06:34:35;;;;;;;;;;;;;;;21.96;53.87402;101306;;;;-73
2022/08/04 06:39:35;;;;;;;;;;;;;;;22.09;53.51074;101314.4;;;;-73
2022/08/04 06:39:45;;;;;;;5;1.5;;;;;;;;;;;;;-73
2022/08/04 06:44:35;;;;;;;;;;;;;;;22.2;53.34082;101315.9;;;;-74
2022/08/04 06:49:35;;;;;;;;;;;;;;;22.42;53.08008;101316.8;;;;-74
2022/08/04 06:54:34;;;;;;;;;;;;;;;22.69;52.6875;101326.7;;;;-72
2022/08/04 06:59:35;;;;;;;;;;;;;;;22.91;52.4502;101324.8;;;;-74
2022/08/04 07:04:34;;;;;;;;;;;;;;;23.09;52.52832;101313.8;;;;-75
2022/08/04 07:09:34;;;;;;;;;;;;;;;23.25;52.31641;101313.8;;;;-74
2022/08/04 07:09:44;;;;;;;4.1;1.4;;;;;;;;;;;;;-74
2022/08/04 07:14:36;;;;;;;;;;;;;;;23.48;51.98926;101316.2;;;;-75
2022/08/04 07:19:35;;;;;;;;;;;;;;;23.85;51.69727;101326.3;;;;-75
2022/08/04 07:24:38;;;;;;;;;;;;;;;24.14;51.48926;101325.2;;;;-77
2022/08/04 07:29:35;;;;;;;;;;;;;;;24.43;50.88867;101333.8;;;;-73
2022/08/04 07:34:35;;;;;;;;;;;;;;;24.75;50.53418;101342.2;;;;-73
2022/08/04 07:39:35;;;;;;;;;;;;;;;25.18;50.37305;101342.5;;;;-74
2022/08/04 07:39:55;;;;;;;5.5;1.2;;;;;;;;;;;;;-74
2022/08/04 07:44:35;;;;;;;;;;;;;;;25.62;49.86816;101346.6;;;;-74
2022/08/04 07:49:34;;;;;;;;;;;;;;;26.09;49.05273;101344.4;;;;-74
2022/08/04 07:54:35;;;;;;;;;;;;;;;26.53;48.39355;101347.3;;;;-75
2022/08/04 07:59:35;;;;;;;;;;;;;;;26.88;47.8291;101347.7;;;;-75
2022/08/04 08:04:35;;;;;;;;;;;;;;;27.26;47.02246;101345;;;;-73
2022/08/04 08:09:35;;;;;;;;;;;;;;;27.63;46.34082;101352.2;;;;-74
2022/08/04 08:09:51;;;;;;;3.9;1.2;;;;;;;;;;;;;-74
2022/08/04 08:14:35;;;;;;;;;;;;;;;28;45.5752;101356;;;;-74
2022/08/04 08:19:35;;;;;;;;;;;;;;;28.29;44.8252;101354.3;;;;-74
2022/08/04 08:24:37;;;;;;;;;;;;;;;28.67;44.07031;101355.3;;;;-74
2022/08/04 08:29:35;;;;;;;;;;;;;;;29.04;43.47656;101360.3;;;;-74
2022/08/04 08:34:35;;;;;;;;;;;;;;;29.39;42.78711;101357;;;;-73
2022/08/04 08:39:39;;;;;;;;;;;;;;;29.71;42.24414;101362.1;;;;-75
2022/08/04 08:39:58;;;;;;;4.2;1.1;;;;;;;;;;;;;-73
2022/08/04 08:44:46;;;;;;;;;;;;;;;29.9;41.82813;101356.4;;;;-75
2022/08/04 08:49:45;;;;;;;;;;;;;;;30.14;41.46484;101355.8;;;;-75
2022/08/04 08:54:41;;;;;;;;;;;;;;;30.29;41.05664;101360.8;;;;-73
2022/08/04 08:59:42;;;;;;;;;;;;;;;30.23;40.69043;101366.7;;;;-74
2022/08/04 09:04:51;;;;;;;;;;;;;;;30.25;40.49121;101366;;;;-75
2022/08/04 09:09:44;;;;;;;;;;;;;;;30.3;40.09863;101371.1;;;;-74
2022/08/04 09:10:15;;;;;;;2.6;1;;;;;;;;;;;;;-73
2022/08/04 09:14:38;;;;;;;;;;;;;;;30.36;39.82324;101371.2;;;;-75
2022/08/04 09:19:36;;;;;;;;;;;;;;;30.46;39.85449;101378.7;;;;-73
2022/08/04 09:24:42;;;;;;;;;;;;;;;30.58;39.66602;101381.8;;;;-73
2022/08/04 09:29:39;;;;;;;;;;;;;;;30.72;39.40918;101376.1;;;;-74
2022/08/04 09:34:37;;;;;;;;;;;;;;;30.98;38.83301;101389.2;;;;-74
2022/08/04 09:39:39;;;;;;;;;;;;;;;31.23;38.71387;101390.7;;;;-74
2022/08/04 09:40:10;;;;;;;3.2;1;;;;;;;;;;;;;-73
2022/08/04 09:44:40;;;;;;;;;;;;;;;31.63;38.25391;101389.1;;;;-75
2022/08/04 09:49:39;;;;;;;;;;;;;;;31.98;37.4834;101392.3;;;;-75
2022/08/04 09:54:41;;;;;;;;;;;;;;;32.04;36.99512;101393.6;;;;-75
2022/08/04 09:59:39;;;;;;;;;;;;;;;31.96;36.81152;101399.2;;;;-74
2022/08/04 10:04:37;;;;;;;;;;;;;;;31.83;36.9541;101406.8;;;;-75
2022/08/04 10:09:37;;;;;;;;;;;;;;;31.69;37.13086;101415.6;;;;-75
2022/08/04 10:10:23;;;;;;;2;0.9;;;;;;;;;;;;;-73
2022/08/04 10:14:40;;;;;;;;;;;;;;;31.54;36.97754;101417.7;;;;-75
2022/08/04 10:19:37;;;;;;;;;;;;;;;31.47;37.06543;101424;;;;-74
2022/08/04 10:24:39;;;;;;;;;;;;;;;31.4;37.28418;101425.1;;;;-74
2022/08/04 10:29:39;;;;;;;;;;;;;;;31.32;37.23047;101421.2;;;;-73
2022/08/04 10:34:39;;;;;;;;;;;;;;;31.36;37.28027;101422;;;;-74
2022/08/04 10:39:39;;;;;;;;;;;;;;;31.4;37.21289;101424;;;;-74
2022/08/04 10:44:40;;;;;;;;;;;;;;;31.5;37.24414;101424.4;;;;-74
2022/08/04 10:49:37;;;;;;;;;;;;;;;31.71;37.26172;101432.5;;;;-77
2022/08/04 10:54:44;;;;;;;;;;;;;;;31.94;37.16211;101430.1;;;;-74
2022/08/04 10:59:37;;;;;;;;;;;;;;;32.12;36.70703;101441;;;;-75
2022/08/04 11:04:40;;;;;;;;;;;;;;;32.13;36.53125;101447.1;;;;-76
2022/08/04 11:09:36;;;;;;;;;;;;;;;32.12;36.57813;101458.4;;;;-77
2022/08/04 11:10:22;;;;;;;3;1.1;;;;;;;;;;;;;-77
2022/08/04 11:14:39;;;;;;;;;;;;;;;32.2;36.77246;101461.8;;;;-75
2022/08/04 11:19:37;;;;;;;;;;;;;;;32.46;36.85156;101458.4;;;;-76
2022/08/04 11:24:38;;;;;;;;;;;;;;;32.91;35.69824;101460.7;;;;-75
2022/08/04 11:29:45;;;;;;;;;;;;;;;33.41;35.06348;101475.7;;;;-76
2022/08/04 11:34:36;;;;;;;;;;;;;;;33.79;34.71484;101472;;;;-76
2022/08/04 11:39:37;;;;;;;;;;;;;;;34.12;35.2832;101478.5;;;;-77
2022/08/04 11:40:27;;;;;;;2.7;1;;;;;;;;;;;;;-75
2022/08/04 11:44:37;;;;;;;;;;;;;;;34.47;33.85547;101480.5;;;;-77
2022/08/04 11:49:40;;;;;;;;;;;;;;;34.74;34.13574;101488.5;;;;-75
2022/08/04 11:54:34;;;;;;;;;;;;;;;34.92;33.69824;101496;;;;-77
2022/08/04 11:59:36;;;;;;;;;;;;;;;35.03;33.20898;101490;;;;-76
2022/08/04 12:04:39;;;;;;;;;;;;;;;35.14;32.6709;101493.7;;;;-77
2022/08/04 12:09:45;;;;;;;;;;;;;;;35.36;32.01074;101500.7;;;;-76
2022/08/04 12:10:33;;;;;;;5.6;1.1;;;;;;;;;;;;;-75
2022/08/04 12:14:44;;;;;;;;;;;;;;;35.57;32.15625;101503.1;;;;-77
2022/08/04 12:19:42;;;;;;;;;;;;;;;35.63;32.7666;101504.5;;;;-77
2022/08/04 12:24:37;;;;;;;;;;;;;;;35.63;33.10938;101500.4;;;;-77
2022/08/04 12:29:36;;;;;;;;;;;;;;;35.57;33.55566;101499.4;;;;-77
2022/08/04 12:34:37;;;;;;;;;;;;;;;35.65;33.44336;101495.6;;;;-76
2022/08/04 12:39:34;;;;;;;;;;;;;;;35.87;32.37891;101487.1;;;;-77
2022/08/04 12:40:41;;;;;;;3.7;1.2;;;;;;;;;;;;;-76
2022/08/04 12:44:38;;;;;;;;;;;;;;;36.16;33.05273;101490.4;;;;-77
2022/08/04 12:49:35;;;;;;;;;;;;;;;36.38;31.77246;101488.1;;;;-76
2022/08/04 12:54:36;;;;;;;;;;;;;;;36.59;31.32324;101489.8;;;;-78
2022/08/04 12:59:40;;;;;;;;;;;;;;;36.76;31.31055;101494;;;;-77
2022/08/04 13:04:37;;;;;;;;;;;;;;;36.78;31.5498;101499.5;;;;-75
2022/08/04 13:09:36;;;;;;;;;;;;;;;36.76;30.5127;101502.9;;;;-77
2022/08/04 13:10:44;;;;;;;2.6;1;;;;;;;;;;;;;-78
2022/08/04 13:14:38;;;;;;;;;;;;;;;36.79;31.37207;101503.3;;;;-77
2022/08/04 13:19:34;;;;;;;;;;;;;;;36.78;31.18164;101509.6;;;;-76
2022/08/04 13:24:36;;;;;;;;;;;;;;;36.7;31.08008;101513.3;;;;-77
2022/08/04 13:29:37;;;;;;;;;;;;;;;36.63;31.68262;101517.1;;;;-77
2022/08/04 13:34:35;;;;;;;;;;;;;;;36.52;31.61523;101522.5;;;;-76
2022/08/04 13:39:35;;;;;;;;;;;;;;;36.38;31.1416;101518.9;;;;-75
2022/08/04 13:40:48;;;;;;;1.9;1;;;;;;;;;;;;;-75
2022/08/04 13:44:36;;;;;;;;;;;;;;;36.33;31.17383;101518.7;;;;-77
2022/08/04 13:49:34;;;;;;;;;;;;;;;36.4;30.5957;101517.4;;;;-74
2022/08/04 13:54:39;;;;;;;;;;;;;;;36.49;30.73242;101523.2;;;;-74
2022/08/04 13:59:37;;;;;;;;;;;;;;;36.5;30.87695;101521.1;;;;-74
2022/08/04 14:04:37;;;;;;;;;;;;;;;36.57;31.27344;101519.6;;;;-73
2022/08/04 14:09:35;;;;;;;;;;;;;;;36.66;30.73242;101529.6;;;;-75
2022/08/04 14:11:00;;;;;;;2.4;0.8;;;;;;;;;;;;;-73
2022/08/04 14:14:37;;;;;;;;;;;;;;;36.62;30.89648;101530.6;;;;-77
2022/08/04 14:19:44;;;;;;;;;;;;;;;36.57;31.05957;101531;;;;-73
2022/08/04 14:24:34;;;;;;;;;;;;;;;36.58;30.69141;101540.3;;;;-73
2022/08/04 14:29:42;;;;;;;;;;;;;;;36.43;30.68164;101540.9;;;;-74
2022/08/04 14:34:34;;;;;;;;;;;;;;;36.2;30.2373;101541;;;;-75
2022/08/04 14:39:45;;;;;;;;;;;;;;;35.9;30.33691;101544.1;;;;-74
2022/08/04 14:41:02;;;;;;;2.6;1;;;;;;;;;;;;;-73
2022/08/04 14:44:34;;;;;;;;;;;;;;;35.66;30.23828;101550.1;;;;-75
2022/08/04 14:49:34;;;;;;;;;;;;;;;35.4;30.74316;101544.3;;;;-74
2022/08/04 14:54:35;;;;;;;;;;;;;;;35.17;30.87012;101541.4;;;;-74
2022/08/04 14:59:42;;;;;;;;;;;;;;;35;30.97754;101544.1;;;;-74
2022/08/04 15:04:34;;;;;;;;;;;;;;;34.95;31.0332;101540.5;;;;-74
2022/08/04 15:09:34;;;;;;;;;;;;;;;34.9;30.78125;101544.7;;;;-73
2022/08/04 15:11:06;;;;;;;3.5;0.8;;;;;;;;;;;;;-76
2022/08/04 15:14:35;;;;;;;;;;;;;;;34.81;31.10742;101546.9;;;;-75
2022/08/04 15:19:34;;;;;;;;;;;;;;;34.78;31.08105;101544.9;;;;-75
2022/08/04 15:24:34;;;;;;;;;;;;;;;34.76;31.18652;101551.1;;;;-75
2022/08/04 15:29:40;;;;;;;;;;;;;;;34.73;30.89941;101563;;;;-74
2022/08/04 15:34:44;;;;;;;;;;;;;;;34.68;30.9209;101557.1;;;;-75
2022/08/04 15:39:47;;;;;;;;;;;;;;;34.61;31.10547;101560.9;;;;-75
2022/08/04 15:41:14;;;;;;;2.2;0.9;;;;;;;;;;;;;-75
2022/08/04 15:44:51;;;;;;;;;;;;;;;34.5;31.40625;101555.4;;;;-75
2022/08/04 15:49:36;;;;;;;;;;;;;;;34.47;31.16699;101557.8;;;;-74
2022/08/04 15:54:35;;;;;;;;;;;;;;;34.42;31.11621;101561.3;;;;-75
2022/08/04 15:59:45;;;;;;;;;;;;;;;34.2;31.45605;101560.8;;;;-76
2022/08/04 16:04:34;;;;;;;;;;;;;;;33.94;32.10156;101565.1;;;;-76
2022/08/04 16:09:34;;;;;;;;;;;;;;;33.7;32.34375;101568;;;;-77
2022/08/04 16:11:29;;;;;;;3.6;1.1;;;;;;;;;;;;;-77
2022/08/04 16:14:40;;;;;;;;;;;;;;;33.42;33.1748;101567.9;;;;-76
2022/08/04 16:19:36;;;;;;;;;;;;;;;33.15;33.5332;101569;;;;-77
2022/08/04 16:24:39;;;;;;;;;;;;;;;32.86;33.61816;101566.2;;;;-76
2022/08/04 16:29:36;;;;;;;;;;;;;;;32.57;33.93848;101574.9;;;;-75
2022/08/04 16:34:35;;;;;;;;;;;;;;;32.27;34.12891;101574.8;;;;-76
2022/08/04 16:39:34;;;;;;;;;;;;;;;31.96;34.24707;101582.5;;;;-73
2022/08/04 16:41:33;;;;;;;2.5;1.1;;;;;;;;;;;;;-74
2022/08/04 16:44:40;;;;;;;;;;;;;;;31.63;34.41016;101588.2;;;;-74
2022/08/04 16:49:35;;;;;;;;;;;;;;;31.31;34.9502;101581.7;;;;-74
2022/08/04 16:54:35;;;;;;;;;;;;;;;31.02;35.12695;101581.3;;;;-74
2022/08/04 16:59:34;;;;;;;;;;;;;;;30.74;35.41113;101584.2;;;;-74
2022/08/04 17:04:35;;;;;;;;;;;;;;;30.46;35.60059;101583.1;;;;-75
2022/08/04 17:09:34;;;;;;;;;;;;;;;30.18;36;101579.3;;;;-77
2022/08/04 17:11:33;;;;;;;3.1;1.1;;;;;;;;;;;;;-75
2022/08/04 17:14:34;;;;;;;;;;;;;;;29.92;36.34277;101584;;;;-78
2022/08/04 17:19:34;;;;;;;;;;;;;;;29.68;36.44043;101575.2;;;;-76
2022/08/04 17:24:35;;;;;;;;;;;;;;;29.48;36.55273;101578.1;;;;-76
2022/08/04 17:29:37;;;;;;;;;;;;;;;29.26;36.73438;101576.5;;;;-72
2022/08/04 17:34:34;;;;;;;;;;;;;;;29.05;36.97461;101579;;;;-74
2022/08/04 17:39:34;;;;;;;;;;;;;;;28.84;37.19043;101576.3;;;;-73
2022/08/04 17:41:34;;;;;;;3.6;1.4;;;;;;;;;;;;;-74
2022/08/04 17:44:42;;;;;;;;;;;;;;;28.64;37.58398;101580.2;;;;-74
2022/08/04 17:49:34;;;;;;;;;;;;;;;28.46;38.15137;101580.1;;;;-74
2022/08/04 17:54:38;;;;;;;;;;;;;;;28.28;38.08984;101592.8;;;;-74
2022/08/04 17:59:44;;;;;;;;;;;;;;;28.1;38.2959;101593.8;;;;-74
2022/08/04 18:04:40;;;;;;;;;;;;;;;27.9;38.54688;101599.2;;;;-73
2022/08/04 18:09:35;;;;;;;;;;;;;;;27.72;38.76465;101615.2;;;;-72
2022/08/04 18:11:38;;;;;;;3.1;1.3;;;;;;;;;;;;;-74
2022/08/04 18:14:40;;;;;;;;;;;;;;;27.5;39.16504;101617.3;;;;-73
2022/08/04 18:19:34;;;;;;;;;;;;;;;27.27;39.56348;101624;;;;-74
2022/08/04 18:24:35;;;;;;;;;;;;;;;27.03;39.74023;101599.8;;;;-76
2022/08/04 18:29:34;;;;;;;;;;;;;;;26.81;40.01074;101571.7;;;;-74
2022/08/04 18:34:34;;;;;;;;;;;;;;;26.6;40.16699;101599.8;;;;-74
2022/08/04 18:39:35;;;;;;;;;;;;;;;26.41;40.24316;101597;;;;-74
2022/08/04 18:41:42;;;;;;;3.4;1.1;;;;;;;;;;;;;-73
2022/08/04 18:44:34;;;;;;;;;;;;;;;26.22;40.48145;101600.5;;;;-73
2022/08/04 18:49:34;;;;;;;;;;;;;;;26.04;40.8584;101604.3;;;;-73
2022/08/04 18:54:34;;;;;;;;;;;;;;;25.85;41.27051;101589.8;;;;-74
2022/08/04 18:59:34;;;;;;;;;;;;;;;25.66;41.65918;101600;;;;-74
2022/08/04 19:04:34;;;;;;;;;;;;;;;25.49;41.97852;101622.7;;;;-73
2022/08/04 19:09:34;;;;;;;;;;;;;;;25.3;42.4248;101649.9;;;;-74
2022/08/04 19:11:46;;;;;;;3.9;1.5;;;;;;;;;;;;;-72
2022/08/04 19:14:34;;;;;;;;;;;;;;;25.13;42.60449;101649.3;;;;-74
2022/08/04 19:19:35;;;;;;;;;;;;;;;24.94;42.81836;101643.5;;;;-73
2022/08/04 19:24:34;;;;;;;;;;;;;;;24.81;42.9668;101658.2;;;;-74
2022/08/04 19:29:34;;;;;;;;;;;;;;;24.65;43.14844;101661.4;;;;-74
2022/08/04 19:34:34;;;;;;;;;;;;;;;24.51;43.35352;101663.9;;;;-75
2022/08/04 19:39:34;;;;;;;;;;;;;;;24.38;43.49121;101680.2;;;;-75
2022/08/04 19:41:50;;;;;;;4.2;1.5;;;;;;;;;;;;;-75
2022/08/04 19:44:34;;;;;;;;;;;;;;;24.24;43.71973;101689.4;;;;-75
2022/08/04 19:49:34;;;;;;;;;;;;;;;24.1;43.99512;101685.7;;;;-74
2022/08/04 19:54:34;;;;;;;;;;;;;;;23.96;44.31641;101685.9;;;;-73
2022/08/04 19:59:34;;;;;;;;;;;;;;;23.83;44.56836;101681.4;;;;-73
2022/08/04 20:04:34;;;;;;;;;;;;;;;23.7;44.94629;101678;;;;-74
2022/08/04 20:09:34;;;;;;;;;;;;;;;23.54;45.0459;101678.4;;;;-74
2022/08/04 20:11:54;;;;;;;3.2;1.6;;;;;;;;;;;;;-73
2022/08/04 20:14:34;;;;;;;;;;;;;;;23.4;45.22754;101674.7;;;;-74
2022/08/04 20:19:34;;;;;;;;;;;;;;;23.24;45.43066;101682.4;;;;-73
2022/08/04 20:24:35;;;;;;;;;;;;;;;23.09;45.71484;101690.7;;;;-73
2022/08/04 20:29:34;;;;;;;;;;;;;;;22.94;45.88281;101698.2;;;;-74
2022/08/04 20:34:34;;;;;;;;;;;;;;;22.8;46.01758;101701.3;;;;-76
2022/08/04 20:39:34;;;;;;;;;;;;;;;22.67;46.37207;101714.2;;;;-75
2022/08/04 20:41:58;;;;;;;6.2;1.7;;;;;;;;;;;;;-74
2022/08/04 20:44:34;;;;;;;;;;;;;;;22.55;46.29199;101713;;;;-73
2022/08/04 20:49:34;;;;;;;;;;;;;;;22.46;46.5459;101709.9;;;;-73
2022/08/04 20:54:34;;;;;;;;;;;;;;;22.35;46.91406;101709.1;;;;-74
2022/08/04 20:59:34;;;;;;;;;;;;;;;22.3;46.9082;101718.8;;;;-74
2022/08/04 21:04:34;;;;;;;;;;;;;;;22.24;47.22266;101729.6;;;;-74
2022/08/04 21:09:34;;;;;;;;;;;;;;;22.17;47.3877;101728.1;;;;-73
2022/08/04 21:12:02;;;;;;;6;1.7;;;;;;;;;;;;;-76
2022/08/04 21:14:34;;;;;;;;;;;;;;;22.13;47.43945;101721.7;;;;-74
2022/08/04 21:19:34;;;;;;;;;;;;;;;22.07;47.7207;101726.3;;;;-74
2022/08/04 21:24:34;;;;;;;;;;;;;;;22;47.82813;101720.4;;;;-73
2022/08/04 21:29:34;;;;;;;;;;;;;;;21.94;47.9707;101723.3;;;;-74
2022/08/04 21:34:35;;;;;;;;;;;;;;;21.87;48.05469;101728;;;;-74
2022/08/04 21:39:34;;;;;;;;;;;;;;;21.79;48.33301;101733.8;;;;-74
2022/08/04 21:42:05;;;;;;;6.4;2;;;;;;;;;;;;;-74
2022/08/04 21:49:34;;;;;;;;;;;;;;;21.66;48.44434;101727.5;;;;-73
2022/08/04 21:54:34;;;;;;;;;;;;;;;21.58;48.5498;101728.7;;;;-75
2022/08/04 21:59:34;;;;;;;;;;;;;;;21.52;48.73926;101713.5;;;;-74
2022/08/04 22:04:34;;;;;;;;;;;;;;;21.47;48.91602;101717.1;;;;-73
2022/08/04 22:09:34;;;;;;;;;;;;;;;21.42;48.81934;101723;;;;-74
2022/08/04 22:12:08;;;;;;;3.6;1.8;;;;;;;;;;;;;-74
2022/08/04 22:14:34;;;;;;;;;;;;;;;21.34;49.00488;101718.5;;;;-73
2022/08/04 22:19:34;;;;;;;;;;;;;;;21.27;49.18066;101711.5;;;;-74
2022/08/04 22:24:34;;;;;;;;;;;;;;;21.18;49.36621;101718.6;;;;-73
2022/08/04 22:29:34;;;;;;;;;;;;;;;21.13;49.54297;101707.3;;;;-74
2022/08/04 22:34:38;;;;;;;;;;;;;;;21.03;49.66895;101684.3;;;;-73
2022/08/04 22:39:34;;;;;;;;;;;;;;;20.98;49.74414;101681;;;;-74
2022/08/04 22:42:11;;;;;;;4;1.9;;;;;;;;;;;;;-72
2022/08/04 22:44:34;;;;;;;;;;;;;;;20.91;49.89648;101691.1;;;;-75
2022/08/04 22:49:34;;;;;;;;;;;;;;;20.85;50.16309;101686.6;;;;-74
2022/08/04 22:54:34;;;;;;;;;;;;;;;20.81;50.22754;101675.9;;;;-75
2022/08/04 22:59:34;;;;;;;;;;;;;;;20.77;50.24609;101663.6;;;;-74
2022/08/04 23:04:35;;;;;;;;;;;;;;;20.71;50.3877;101659.8;;;;-74
2022/08/04 23:09:34;;;;;;;;;;;;;;;20.67;50.41797;101666.3;;;;-74
2022/08/04 23:12:14;;;;;;;5;1.9;;;;;;;;;;;;;-75
2022/08/04 23:14:35;;;;;;;;;;;;;;;20.63;50.43555;101667.1;;;;-74
2022/08/04 23:19:35;;;;;;;;;;;;;;;20.61;50.55957;101667.5;;;;-73
2022/08/04 23:24:34;;;;;;;;;;;;;;;20.58;50.6123;101665.3;;;;-75
2022/08/04 23:29:34;;;;;;;;;;;;;;;20.54;50.66602;101653.6;;;;-76
2022/08/04 23:34:34;;;;;;;;;;;;;;;20.5;50.58105;101659.7;;;;-74
2022/08/04 23:39:34;;;;;;;;;;;;;;;20.44;50.83594;101682.9;;;;-73
2022/08/04 23:42:17;;;;;;;5.1;1.8;;;;;;;;;;;;;-74
2022/08/04 23:44:34;;;;;;;;;;;;;;;20.39;50.79688;101682.1;;;;-73
2022/08/04 23:49:35;;;;;;;;;;;;;;;20.34;50.98438;101681.4;;;;-75
2022/08/04 23:54:34;;;;;;;;;;;;;;;20.28;51.03516;101685.6;;;;-73
2022/08/04 23:59:34;;;;;;;;;;;;;;;20.24;51.13379;101685;;;;-73
